sensor_id;sensor_type;location;lat;lon;timestamp;pressure;altitude;pressure_sealevel;temperature;humidity
53116;BME280;39010;48.088;7.954;2022-10-16T00:01:17;98445.22;;;13.88;100.00
53116;BME280;39010;48.088;7.954;2022-10-16T00:03:45;98441.06;;;13.92;100.00
53116;BME280;39010;48.088;7.954;2022-10-16T00:06:12;98441.50;;;13.95;100.00
53116;BME280;39010;48.088;7.954;2022-10-16T00:08:38;98444.19;;;13.95;100.00
53116;BME280;39010;48.088;7.954;2022-10-16T00:11:15;98444.59;;;13.99;100.00
53116;BME280;39010;48.088;7.954;2022-10-16T00:13:42;98449.78;;;13.94;100.00
53116;BME280;39010;48.088;7.954;2022-10-16T00:16:10;98450.19;;;13.91;100.00
53116;BME280;39010;48.088;7.954;2022-10-16T00:18:37;98452.28;;;13.95;100.00
53116;BME280;39010;48.088;7.954;2022-10-16T00:21:05;98448.13;;;13.93;100.00
53116;BME280;39010;48.088;7.954;2022-10-16T00:23:31;98456.84;;;13.95;100.00
53116;BME280;39010;48.088;7.954;2022-10-16T00:25:59;98466.38;;;13.91;100.00
53116;BME280;39010;48.088;7.954;2022-10-16T00:28:26;98457.03;;;14.00;100.00
53116;BME280;39010;48.088;7.954;2022-10-16T00:30:52;98459.94;;;14.05;100.00
53116;BME280;39010;48.088;7.954;2022-10-16T00:33:19;98455.19;;;14.07;100.00
53116;BME280;39010;48.088;7.954;2022-10-16T00:35:45;98452.28;;;13.95;100.00
53116;BME280;39010;48.088;7.954;2022-10-16T00:38:12;98463.91;;;13.96;100.00
53116;BME280;39010;48.088;7.954;2022-10-16T00:40:38;98460.38;;;13.95;100.00
53116;BME280;39010;48.088;7.954;2022-10-16T00:43:14;98459.75;;;13.87;100.00
53116;BME280;39010;48.088;7.954;2022-10-16T00:45:58;98456.44;;;13.84;100.00
53116;BME280;39010;48.088;7.954;2022-10-16T00:48:25;98458.09;;;13.85;100.00
53116;BME280;39010;48.088;7.954;2022-10-16T00:50:51;98456.84;;;13.81;100.00
53116;BME280;39010;48.088;7.954;2022-10-16T00:53:18;98461.63;;;13.79;100.00
53116;BME280;39010;48.088;7.954;2022-10-16T00:55:44;98454.78;;;13.77;100.00
53116;BME280;39010;48.088;7.954;2022-10-16T00:58:11;98457.28;;;13.85;100.00
53116;BME280;39010;48.088;7.954;2022-10-16T01:00:38;98469.94;;;13.78;100.00
53116;BME280;39010;48.088;7.954;2022-10-16T01:03:22;98463.50;;;13.79;100.00
53116;BME280;39010;48.088;7.954;2022-10-16T01:05:50;98462.25;;;13.81;100.00
53116;BME280;39010;48.088;7.954;2022-10-16T01:08:41;98469.09;;;13.91;100.00
53116;BME280;39010;48.088;7.954;2022-10-16T01:11:25;98474.06;;;13.80;100.00
53116;BME280;39010;48.088;7.954;2022-10-16T01:13:54;98475.53;;;13.83;100.00
53116;BME280;39010;48.088;7.954;2022-10-16T01:16:31;98481.75;;;13.83;100.00
53116;BME280;39010;48.088;7.954;2022-10-16T01:19:02;98480.28;;;13.74;100.00
53116;BME280;39010;48.088;7.954;2022-10-16T01:21:33;98476.78;;;13.74;100.00
53116;BME280;39010;48.088;7.954;2022-10-16T01:29:20;98478.84;;;13.72;100.00
53116;BME280;39010;48.088;7.954;2022-10-16T01:31:50;98473.88;;;13.68;100.00
53116;BME280;39010;48.088;7.954;2022-10-16T01:34:33;98476.75;;;13.67;100.00
53116;BME280;39010;48.088;7.954;2022-10-16T01:37:05;98476.13;;;13.65;100.00
53116;BME280;39010;48.088;7.954;2022-10-16T01:39:35;98478.84;;;13.65;100.00
53116;BME280;39010;48.088;7.954;2022-10-16T01:42:08;98477.19;;;13.70;100.00
53116;BME280;39010;48.088;7.954;2022-10-16T01:44:35;98488.41;;;13.67;100.00
53116;BME280;39010;48.088;7.954;2022-10-16T01:47:04;98486.31;;;13.63;100.00
53116;BME280;39010;48.088;7.954;2022-10-16T01:49:32;98477.38;;;13.69;100.00
53116;BME280;39010;48.088;7.954;2022-10-16T01:52:00;98466.16;;;13.59;100.00
53116;BME280;39010;48.088;7.954;2022-10-16T01:54:28;98463.06;;;13.62;100.00
53116;BME280;39010;48.088;7.954;2022-10-16T01:56:57;98472.19;;;13.54;100.00
53116;BME280;39010;48.088;7.954;2022-10-16T01:59:25;98456.81;;;13.54;100.00
53116;BME280;39010;48.088;7.954;2022-10-16T02:01:53;98460.78;;;13.52;100.00
53116;BME280;39010;48.088;7.954;2022-10-16T02:04:27;98457.06;;;13.53;100.00
53116;BME280;39010;48.088;7.954;2022-10-16T02:06:54;98460.97;;;13.50;100.00
53116;BME280;39010;48.088;7.954;2022-10-16T02:09:20;98459.72;;;13.46;100.00
53116;BME280;39010;48.088;7.954;2022-10-16T02:11:47;98463.66;;;13.50;100.00
53116;BME280;39010;48.088;7.954;2022-10-16T02:14:15;98465.53;;;13.43;100.00
53116;BME280;39010;48.088;7.954;2022-10-16T02:16:42;98464.72;;;13.63;100.00
53116;BME280;39010;48.088;7.954;2022-10-16T02:19:10;98470.94;;;13.57;100.00
53116;BME280;39010;48.088;7.954;2022-10-16T02:21:46;98474.44;;;13.50;100.00
53116;BME280;39010;48.088;7.954;2022-10-16T02:29:14;98470.91;;;13.43;100.00
53116;BME280;39010;48.088;7.954;2022-10-16T02:31:43;98474.41;;;13.37;100.00
53116;BME280;39010;48.088;7.954;2022-10-16T02:34:11;98473.78;;;13.35;100.00
53116;BME280;39010;48.088;7.954;2022-10-16T02:36:39;98478.34;;;13.34;100.00
53116;BME280;39010;48.088;7.954;2022-10-16T02:39:06;98479.16;;;13.35;100.00
53116;BME280;39010;48.088;7.954;2022-10-16T02:41:33;98476.69;;;13.40;100.00
53116;BME280;39010;48.088;7.954;2022-10-16T02:43:59;98476.31;;;13.43;100.00
53116;BME280;39010;48.088;7.954;2022-10-16T02:46:26;98473.38;;;13.38;100.00
53116;BME280;39010;48.088;7.954;2022-10-16T02:48:52;98484.78;;;13.33;100.00
53116;BME280;39010;48.088;7.954;2022-10-16T02:51:18;98481.63;;;13.30;100.00
53116;BME280;39010;48.088;7.954;2022-10-16T02:53:45;98490.56;;;13.30;100.00
53116;BME280;39010;48.088;7.954;2022-10-16T02:56:11;98492.41;;;13.30;100.00
53116;BME280;39010;48.088;7.954;2022-10-16T02:58:37;98486.22;;;13.29;100.00
53116;BME280;39010;48.088;7.954;2022-10-16T03:01:04;98492.00;;;13.33;100.00
53116;BME280;39010;48.088;7.954;2022-10-16T03:03:30;98484.16;;;13.24;100.00
53116;BME280;39010;48.088;7.954;2022-10-16T03:05:57;98489.53;;;13.24;100.00
53116;BME280;39010;48.088;7.954;2022-10-16T03:08:23;98491.78;;;13.27;100.00
53116;BME280;39010;48.088;7.954;2022-10-16T03:10:51;98482.88;;;13.20;100.00
53116;BME280;39010;48.088;7.954;2022-10-16T03:13:17;98482.88;;;13.20;100.00
53116;BME280;39010;48.088;7.954;2022-10-16T03:15:46;98481.00;;;13.21;100.00
53116;BME280;39010;48.088;7.954;2022-10-16T03:18:12;98492.63;;;13.21;100.00
53116;BME280;39010;48.088;7.954;2022-10-16T03:20:39;98487.84;;;13.17;100.00
53116;BME280;39010;48.088;7.954;2022-10-16T03:23:05;98484.97;;;13.18;100.00
53116;BME280;39010;48.088;7.954;2022-10-16T03:25:32;98479.56;;;13.18;100.00
53116;BME280;39010;48.088;7.954;2022-10-16T03:27:59;98477.06;;;13.17;100.00
53116;BME280;39010;48.088;7.954;2022-10-16T03:30:25;98472.50;;;13.17;100.00
53116;BME280;39010;48.088;7.954;2022-10-16T03:32:51;98476.25;;;13.16;100.00
53116;BME280;39010;48.088;7.954;2022-10-16T03:35:20;98474.81;;;13.20;100.00
53116;BME280;39010;48.088;7.954;2022-10-16T03:37:47;98478.53;;;13.19;100.00
53116;BME280;39010;48.088;7.954;2022-10-16T03:40:13;98479.34;;;13.20;100.00
53116;BME280;39010;48.088;7.954;2022-10-16T03:42:39;98472.09;;;13.20;100.00
53116;BME280;39010;48.088;7.954;2022-10-16T03:45:06;98475.22;;;13.17;100.00
53116;BME280;39010;48.088;7.954;2022-10-16T03:47:32;98479.78;;;13.23;100.00
53116;BME280;39010;48.088;7.954;2022-10-16T03:49:59;98488.06;;;13.22;100.00
53116;BME280;39010;48.088;7.954;2022-10-16T03:52:26;98479.78;;;13.30;100.00
53116;BME280;39010;48.088;7.954;2022-10-16T03:54:52;98484.75;;;13.26;100.00
53116;BME280;39010;48.088;7.954;2022-10-16T03:57:19;98488.69;;;13.31;100.00
53116;BME280;39010;48.088;7.954;2022-10-16T03:59:46;98500.31;;;13.38;100.00
53116;BME280;39010;48.088;7.954;2022-10-16T04:02:13;98492.66;;;13.35;100.00
53116;BME280;39010;48.088;7.954;2022-10-16T04:04:39;98490.38;;;13.38;100.00
53116;BME280;39010;48.088;7.954;2022-10-16T04:07:05;98487.94;;;13.44;100.00
53116;BME280;39010;48.088;7.954;2022-10-16T04:09:32;98495.19;;;13.43;100.00
53116;BME280;39010;48.088;7.954;2022-10-16T04:11:58;98497.06;;;13.43;100.00
53116;BME280;39010;48.088;7.954;2022-10-16T04:14:24;98499.13;;;13.47;100.00
53116;BME280;39010;48.088;7.954;2022-10-16T04:16:51;98497.88;;;13.43;100.00
53116;BME280;39010;48.088;7.954;2022-10-16T04:19:17;98509.69;;;13.42;100.00
53116;BME280;39010;48.088;7.954;2022-10-16T04:21:44;98507.44;;;13.46;100.00
53116;BME280;39010;48.088;7.954;2022-10-16T04:24:10;98510.31;;;13.44;100.00
53116;BME280;39010;48.088;7.954;2022-10-16T04:26:38;98505.53;;;13.39;100.00
53116;BME280;39010;48.088;7.954;2022-10-16T04:29:04;98504.06;;;13.37;100.00
53116;BME280;39010;48.088;7.954;2022-10-16T04:31:32;98497.84;;;13.36;100.00
53116;BME280;39010;48.088;7.954;2022-10-16T04:33:59;98507.59;;;13.37;100.00
53116;BME280;39010;48.088;7.954;2022-10-16T04:36:25;98512.78;;;13.32;100.00
53116;BME280;39010;48.088;7.954;2022-10-16T04:38:54;98508.59;;;13.30;100.00
53116;BME280;39010;48.088;7.954;2022-10-16T04:41:21;98509.44;;;13.30;100.00
53116;BME280;39010;48.088;7.954;2022-10-16T04:43:47;98505.72;;;13.24;100.00
53116;BME280;39010;48.088;7.954;2022-10-16T04:46:14;98510.66;;;13.27;100.00
53116;BME280;39010;48.088;7.954;2022-10-16T04:48:40;98508.19;;;13.26;100.00
53116;BME280;39010;48.088;7.954;2022-10-16T04:51:06;98506.75;;;13.23;100.00
53116;BME280;39010;48.088;7.954;2022-10-16T04:53:33;98509.84;;;13.20;100.00
53116;BME280;39010;48.088;7.954;2022-10-16T04:56:00;98512.94;;;13.24;100.00
53116;BME280;39010;48.088;7.954;2022-10-16T04:58:26;98499.06;;;13.20;100.00
53116;BME280;39010;48.088;7.954;2022-10-16T05:00:53;98504.47;;;13.27;100.00
53116;BME280;39010;48.088;7.954;2022-10-16T05:03:22;98505.72;;;13.24;100.00
53116;BME280;39010;48.088;7.954;2022-10-16T05:05:49;98502.38;;;13.22;100.00
53116;BME280;39010;48.088;7.954;2022-10-16T05:08:15;98505.72;;;13.38;100.00
53116;BME280;39010;48.088;7.954;2022-10-16T05:10:42;98519.81;;;13.40;100.00
53116;BME280;39010;48.088;7.954;2022-10-16T05:13:09;98522.53;;;13.33;100.00
53116;BME280;39010;48.088;7.954;2022-10-16T05:15:35;98518.16;;;13.32;100.00
53116;BME280;39010;48.088;7.954;2022-10-16T05:18:02;98523.78;;;13.37;100.00
53116;BME280;39010;48.088;7.954;2022-10-16T05:20:29;98523.56;;;13.32;100.00
53116;BME280;39010;48.088;7.954;2022-10-16T05:22:55;98527.28;;;13.31;100.00
53116;BME280;39010;48.088;7.954;2022-10-16T05:25:22;98523.97;;;13.36;100.00
53116;BME280;39010;48.088;7.954;2022-10-16T05:27:48;98532.84;;;13.30;100.00
53116;BME280;39010;48.088;7.954;2022-10-16T05:30:15;98526.66;;;13.29;100.00
53116;BME280;39010;48.088;7.954;2022-10-16T05:32:45;98535.56;;;13.30;100.00
53116;BME280;39010;48.088;7.954;2022-10-16T05:35:12;98542.19;;;13.27;100.00
53116;BME280;39010;48.088;7.954;2022-10-16T05:37:38;98535.78;;;13.35;100.00
53116;BME280;39010;48.088;7.954;2022-10-16T05:40:04;98538.91;;;13.38;100.00
53116;BME280;39010;48.088;7.954;2022-10-16T05:42:31;98519.44;;;13.43;100.00
53116;BME280;39010;48.088;7.954;2022-10-16T05:44:58;98522.38;;;13.48;100.00
53116;BME280;39010;48.088;7.954;2022-10-16T05:47:24;98531.28;;;13.42;100.00
53116;BME280;39010;48.088;7.954;2022-10-16T05:49:51;98538.69;;;13.40;100.00
53116;BME280;39010;48.088;7.954;2022-10-16T05:52:17;98540.13;;;13.36;100.00
53116;BME280;39010;48.088;7.954;2022-10-16T05:54:44;98534.34;;;13.39;100.00
53116;BME280;39010;48.088;7.954;2022-10-16T05:57:10;98540.13;;;13.36;100.00
53116;BME280;39010;48.088;7.954;2022-10-16T05:59:37;98542.03;;;13.35;100.00
53116;BME280;39010;48.088;7.954;2022-10-16T06:02:05;98548.63;;;13.33;100.00
53116;BME280;39010;48.088;7.954;2022-10-16T06:04:31;98549.88;;;13.37;100.00
53116;BME280;39010;48.088;7.954;2022-10-16T06:06:58;98545.75;;;13.41;100.00
53116;BME280;39010;48.088;7.954;2022-10-16T06:09:26;98554.72;;;13.48;100.00
53116;BME280;39010;48.088;7.954;2022-10-16T06:11:53;98554.31;;;13.45;100.00
53116;BME280;39010;48.088;7.954;2022-10-16T06:14:19;98544.97;;;13.47;100.00
53116;BME280;39010;48.088;7.954;2022-10-16T06:16:45;98551.44;;;13.53;100.00
53116;BME280;39010;48.088;7.954;2022-10-16T06:19:12;98549.34;;;13.48;100.00
53116;BME280;39010;48.088;7.954;2022-10-16T06:21:38;98567.59;;;13.46;100.00
53116;BME280;39010;48.088;7.954;2022-10-16T06:24:04;98561.38;;;13.52;100.00
53116;BME280;39010;48.088;7.954;2022-10-16T06:26:31;98573.00;;;13.53;100.00
53116;BME280;39010;48.088;7.954;2022-10-16T06:28:58;98578.81;;;13.57;100.00
53116;BME280;39010;48.088;7.954;2022-10-16T06:31:25;98581.50;;;13.57;100.00
53116;BME280;39010;48.088;7.954;2022-10-16T06:33:53;98589.00;;;13.61;100.00
53116;BME280;39010;48.088;7.954;2022-10-16T06:36:20;98600.00;;;13.60;100.00
53116;BME280;39010;48.088;7.954;2022-10-16T06:38:46;98601.66;;;13.61;100.00
53116;BME280;39010;48.088;7.954;2022-10-16T06:41:14;98605.16;;;13.54;100.00
53116;BME280;39010;48.088;7.954;2022-10-16T06:43:41;98608.72;;;13.62;100.00
53116;BME280;39010;48.088;7.954;2022-10-16T06:46:09;98608.94;;;13.67;100.00
53116;BME280;39010;48.088;7.954;2022-10-16T06:48:35;98611.44;;;13.75;100.00
53116;BME280;39010;48.088;7.954;2022-10-16T06:53:32;98606.91;;;13.76;100.00
53116;BME280;39010;48.088;7.954;2022-10-16T06:56:10;98601.06;;;13.72;100.00
53116;BME280;39010;48.088;7.954;2022-10-16T06:58:37;98606.25;;;13.67;100.00
53116;BME280;39010;48.088;7.954;2022-10-16T07:01:04;98609.16;;;13.65;100.00
53116;BME280;39010;48.088;7.954;2022-10-16T07:03:30;98616.22;;;13.66;100.00
53116;BME280;39010;48.088;7.954;2022-10-16T07:06:01;98627.81;;;13.67;100.00
53116;BME280;39010;48.088;7.954;2022-10-16T07:08:27;98629.94;;;13.78;100.00
53116;BME280;39010;48.088;7.954;2022-10-16T07:11:00;98629.31;;;13.76;100.00
53116;BME280;39010;48.088;7.954;2022-10-16T07:13:27;98639.91;;;13.84;100.00
53116;BME280;39010;48.088;7.954;2022-10-16T07:15:54;98645.31;;;13.78;100.00
53116;BME280;39010;48.088;7.954;2022-10-16T07:18:20;98642.19;;;13.81;100.00
53116;BME280;39010;48.088;7.954;2022-10-16T07:20:47;98642.81;;;13.83;100.00
53116;BME280;39010;48.088;7.954;2022-10-16T07:23:14;98648.63;;;13.87;100.00
53116;BME280;39010;48.088;7.954;2022-10-16T07:25:40;98649.03;;;13.83;100.00
53116;BME280;39010;48.088;7.954;2022-10-16T07:28:06;98658.44;;;14.01;100.00
53116;BME280;39010;48.088;7.954;2022-10-16T07:30:34;98665.28;;;13.97;100.00
53116;BME280;39010;48.088;7.954;2022-10-16T07:33:01;98667.78;;;14.05;100.00
53116;BME280;39010;48.088;7.954;2022-10-16T07:35:27;98668.41;;;14.01;100.00
53116;BME280;39010;48.088;7.954;2022-10-16T07:37:54;98664.91;;;14.13;100.00
53116;BME280;39010;48.088;7.954;2022-10-16T07:40:21;98669.66;;;14.11;100.00
53116;BME280;39010;48.088;7.954;2022-10-16T07:42:47;98664.25;;;14.18;100.00
53116;BME280;39010;48.088;7.954;2022-10-16T07:45:13;98674.88;;;14.13;100.00
53116;BME280;39010;48.088;7.954;2022-10-16T07:47:40;98672.38;;;14.18;100.00
53116;BME280;39010;48.088;7.954;2022-10-16T07:50:06;98674.88;;;14.26;100.00
53116;BME280;39010;48.088;7.954;2022-10-16T07:52:33;98684.84;;;14.26;100.00
53116;BME280;39010;48.088;7.954;2022-10-16T07:54:59;98685.25;;;14.29;100.00
53116;BME280;39010;48.088;7.954;2022-10-16T07:57:26;98685.69;;;14.40;100.00
53116;BME280;39010;48.088;7.954;2022-10-16T07:59:54;98681.34;;;14.46;100.00
53116;BME280;39010;48.088;7.954;2022-10-16T08:02:20;98685.09;;;14.58;100.00
53116;BME280;39010;48.088;7.954;2022-10-16T08:04:47;98692.84;;;14.75;100.00
53116;BME280;39010;48.088;7.954;2022-10-16T08:07:13;98692.19;;;14.79;100.00
53116;BME280;39010;48.088;7.954;2022-10-16T08:09:39;98694.69;;;14.87;100.00
53116;BME280;39010;48.088;7.954;2022-10-16T08:12:06;98697.41;;;14.94;100.00
53116;BME280;39010;48.088;7.954;2022-10-16T08:14:32;98706.94;;;15.03;100.00
53116;BME280;39010;48.088;7.954;2022-10-16T08:16:58;98710.69;;;15.09;100.00
53116;BME280;39010;48.088;7.954;2022-10-16T08:19:25;98700.69;;;15.16;100.00
53116;BME280;39010;48.088;7.954;2022-10-16T08:21:51;98698.59;;;15.19;100.00
53116;BME280;39010;48.088;7.954;2022-10-16T08:24:17;98705.66;;;15.26;100.00
53116;BME280;39010;48.088;7.954;2022-10-16T08:26:44;98702.56;;;15.23;100.00
53116;BME280;39010;48.088;7.954;2022-10-16T08:29:10;98697.97;;;15.30;100.00
53116;BME280;39010;48.088;7.954;2022-10-16T08:31:37;98701.44;;;15.44;100.00
53116;BME280;39010;48.088;7.954;2022-10-16T08:34:03;98700.84;;;15.42;100.00
53116;BME280;39010;48.088;7.954;2022-10-16T08:36:29;98701.44;;;15.44;100.00
53116;BME280;39010;48.088;7.954;2022-10-16T08:38:56;98698.28;;;15.60;100.00
53116;BME280;39010;48.088;7.954;2022-10-16T08:46:56;98699.72;;;15.70;100.00
53116;BME280;39010;48.088;7.954;2022-10-16T08:49:28;98703.84;;;15.79;100.00
53116;BME280;39010;48.088;7.954;2022-10-16T08:51:56;98701.16;;;15.72;100.00
53116;BME280;39010;48.088;7.954;2022-10-16T08:55:08;98696.16;;;15.76;100.00
53116;BME280;39010;48.088;7.954;2022-10-16T08:57:19;98694.66;;;15.94;100.00
53116;BME280;39010;48.088;7.954;2022-10-16T08:59:49;98698.34;;;15.99;100.00
53116;BME280;39010;48.088;7.954;2022-10-16T09:09:57;98710.75;;;16.20;100.00
53116;BME280;39010;48.088;7.954;2022-10-16T09:12:32;98709.56;;;16.42;100.00
53116;BME280;39010;48.088;7.954;2022-10-16T09:22:44;98720.81;;;16.77;100.00
53116;BME280;39010;48.088;7.954;2022-10-16T09:25:12;98719.25;;;16.88;100.00
53116;BME280;39010;48.088;7.954;2022-10-16T09:27:48;98733.34;;;17.04;100.00
53116;BME280;39010;48.088;7.954;2022-10-16T09:30:19;98728.22;;;17.14;100.00
53116;BME280;39010;48.088;7.954;2022-10-16T09:32:47;98736.47;;;17.26;100.00
53116;BME280;39010;48.088;7.954;2022-10-16T09:35:15;98739.25;;;17.94;100.00
53116;BME280;39010;48.088;7.954;2022-10-16T09:37:43;98726.25;;;19.71;98.42
53116;BME280;39010;48.088;7.954;2022-10-16T09:40:12;98732.88;;;19.75;92.70
53116;BME280;39010;48.088;7.954;2022-10-16T09:42:38;98732.81;;;20.40;92.29
53116;BME280;39010;48.088;7.954;2022-10-16T09:45:05;98726.84;;;20.72;88.67
53116;BME280;39010;48.088;7.954;2022-10-16T09:47:32;98735.66;;;20.91;86.68
53116;BME280;39010;48.088;7.954;2022-10-16T09:50:15;98745.34;;;21.72;83.43
53116;BME280;39010;48.088;7.954;2022-10-16T09:52:45;98743.22;;;21.40;84.41
53116;BME280;39010;48.088;7.954;2022-10-16T09:55:15;98734.28;;;22.56;79.82
53116;BME280;39010;48.088;7.954;2022-10-16T09:57:49;98730.31;;;23.45;72.20
53116;BME280;39010;48.088;7.954;2022-10-16T10:00:16;98735.78;;;22.69;74.32
53116;BME280;39010;48.088;7.954;2022-10-16T10:02:42;98735.69;;;22.59;75.82
53116;BME280;39010;48.088;7.954;2022-10-16T10:05:22;98742.38;;;22.46;76.66
53116;BME280;39010;48.088;7.954;2022-10-16T10:07:58;98745.50;;;21.66;81.10
53116;BME280;39010;48.088;7.954;2022-10-16T10:10:29;98743.19;;;21.74;80.94
53116;BME280;39010;48.088;7.954;2022-10-16T10:12:57;98739.75;;;21.28;82.08
53116;BME280;39010;48.088;7.954;2022-10-16T10:15:23;98729.69;;;21.11;82.74
53116;BME280;39010;48.088;7.954;2022-10-16T10:17:51;98734.41;;;20.82;84.31
53116;BME280;39010;48.088;7.954;2022-10-16T10:20:23;98735.47;;;20.81;85.79
53116;BME280;39010;48.088;7.954;2022-10-16T10:22:50;98740.59;;;20.48;85.17
53116;BME280;39010;48.088;7.954;2022-10-16T10:25:36;98741.41;;;20.31;82.06
53116;BME280;39010;48.088;7.954;2022-10-16T10:33:28;98736.47;;;20.16;83.78
53116;BME280;39010;48.088;7.954;2022-10-16T10:39:04;98729.56;;;20.26;83.92
53116;BME280;39010;48.088;7.954;2022-10-16T10:41:57;98727.78;;;20.31;82.85
53116;BME280;39010;48.088;7.954;2022-10-16T10:50:03;98726.41;;;20.17;82.06
53116;BME280;39010;48.088;7.954;2022-10-16T10:52:58;98725.34;;;20.64;83.15
53116;BME280;39010;48.088;7.954;2022-10-16T11:02:26;98723.81;;;20.85;80.57
53116;BME280;39010;48.088;7.954;2022-10-16T11:07:32;98724.69;;;20.74;82.27
53116;BME280;39010;48.088;7.954;2022-10-16T11:10:09;98724.28;;;20.65;79.82
53116;BME280;39010;48.088;7.954;2022-10-16T11:12:42;98713.88;;;20.79;83.99
53116;BME280;39010;48.088;7.954;2022-10-16T11:15:18;98721.56;;;20.82;83.92
53116;BME280;39010;48.088;7.954;2022-10-16T11:18:12;98729.84;;;20.87;84.03
53116;BME280;39010;48.088;7.954;2022-10-16T11:20:49;98726.47;;;20.80;84.80
53116;BME280;39010;48.088;7.954;2022-10-16T11:23:38;98722.94;;;20.68;86.56
53116;BME280;39010;48.088;7.954;2022-10-16T11:26:13;98722.53;;;20.59;82.88
53116;BME280;39010;48.088;7.954;2022-10-16T11:28:49;98715.97;;;20.89;85.81
53116;BME280;39010;48.088;7.954;2022-10-16T11:31:36;98721.44;;;20.89;81.43
53116;BME280;39010;48.088;7.954;2022-10-16T11:34:19;98718.59;;;21.01;82.77
53116;BME280;39010;48.088;7.954;2022-10-16T11:37:17;98717.56;;;21.41;84.89
53116;BME280;39010;48.088;7.954;2022-10-16T11:39:45;98713.41;;;21.39;81.03
53116;BME280;39010;48.088;7.954;2022-10-16T11:42:19;98713.19;;;21.40;79.53
53116;BME280;39010;48.088;7.954;2022-10-16T11:48:15;98716.41;;;21.99;77.01
53116;BME280;39010;48.088;7.954;2022-10-16T11:50:58;98706.25;;;22.71;76.46
53116;BME280;39010;48.088;7.954;2022-10-16T11:56:17;98706.38;;;23.78;71.34
53116;BME280;39010;48.088;7.954;2022-10-16T12:01:43;98700.75;;;24.10;65.03
53116;BME280;39010;48.088;7.954;2022-10-16T12:04:36;98704.69;;;24.51;64.51
53116;BME280;39010;48.088;7.954;2022-10-16T12:07:14;98692.53;;;24.16;63.28
53116;BME280;39010;48.088;7.954;2022-10-16T12:09:44;98698.63;;;24.44;59.57
53116;BME280;39010;48.088;7.954;2022-10-16T12:12:37;98697.19;;;24.05;64.25
53116;BME280;39010;48.088;7.954;2022-10-16T12:15:33;98699.19;;;24.40;62.03
53116;BME280;39010;48.088;7.954;2022-10-16T12:18:22;98696.59;;;23.97;66.75
53116;BME280;39010;48.088;7.954;2022-10-16T12:20:56;98690.69;;;24.37;60.82
53116;BME280;39010;48.088;7.954;2022-10-16T12:23:33;98682.72;;;24.30;64.31
53116;BME280;39010;48.088;7.954;2022-10-16T12:26:03;98694.25;;;24.53;65.19
53116;BME280;39010;48.088;7.954;2022-10-16T12:28:33;98694.66;;;23.98;56.76
53116;BME280;39010;48.088;7.954;2022-10-16T12:31:02;98697.81;;;24.33;49.33
53116;BME280;39010;48.088;7.954;2022-10-16T12:33:32;98696.72;;;24.44;51.02
53116;BME280;39010;48.088;7.954;2022-10-16T12:36:03;98698.03;;;24.21;59.66
53116;BME280;39010;48.088;7.954;2022-10-16T12:38:38;98694.22;;;24.32;53.76
53116;BME280;39010;48.088;7.954;2022-10-16T12:41:11;98692.63;;;24.62;56.63
53116;BME280;39010;48.088;7.954;2022-10-16T12:43:45;98687.97;;;24.83;58.81
53116;BME280;39010;48.088;7.954;2022-10-16T12:48:41;98684.38;;;25.14;60.63
53116;BME280;39010;48.088;7.954;2022-10-16T12:54:19;98679.25;;;25.78;56.62
53116;BME280;39010;48.088;7.954;2022-10-16T12:57:03;98680.09;;;26.34;51.58
53116;BME280;39010;48.088;7.954;2022-10-16T13:05:20;98685.63;;;27.03;53.70
53116;BME280;39010;48.088;7.954;2022-10-16T13:08:23;98679.91;;;27.73;50.68
53116;BME280;39010;48.088;7.954;2022-10-16T13:13:40;98680.63;;;27.59;50.30
53116;BME280;39010;48.088;7.954;2022-10-16T13:21:39;98686.16;;;27.05;56.45
53116;BME280;39010;48.088;7.954;2022-10-16T13:27:18;98689.97;;;26.75;53.59
53116;BME280;39010;48.088;7.954;2022-10-16T13:30:01;98680.31;;;26.83;53.70
53116;BME280;39010;48.088;7.954;2022-10-16T13:32:29;98686.41;;;25.79;54.85
53116;BME280;39010;48.088;7.954;2022-10-16T13:34:55;98682.41;;;25.51;54.94
53116;BME280;39010;48.088;7.954;2022-10-16T13:37:24;98682.41;;;25.46;56.50
53116;BME280;39010;48.088;7.954;2022-10-16T13:40:06;98681.63;;;26.06;53.73
53116;BME280;39010;48.088;7.954;2022-10-16T13:42:33;98686.53;;;26.19;55.30
53116;BME280;39010;48.088;7.954;2022-10-16T13:45:00;98675.66;;;26.38;55.75
53116;BME280;39010;48.088;7.954;2022-10-16T13:47:28;98672.59;;;26.45;56.79
53116;BME280;39010;48.088;7.954;2022-10-16T13:52:30;98674.44;;;26.55;54.64
53116;BME280;39010;48.088;7.954;2022-10-16T13:54:57;98681.72;;;26.35;53.70
53116;BME280;39010;48.088;7.954;2022-10-16T13:57:28;98681.25;;;26.23;54.86
53116;BME280;39010;48.088;7.954;2022-10-16T13:59:54;98688.13;;;26.25;55.22
53116;BME280;39010;48.088;7.954;2022-10-16T14:02:33;98691.16;;;25.58;57.42
53116;BME280;39010;48.088;7.954;2022-10-16T14:05:02;98693.16;;;25.21;57.56
53116;BME280;39010;48.088;7.954;2022-10-16T14:07:32;98693.75;;;25.08;58.44
53116;BME280;39010;48.088;7.954;2022-10-16T14:10:03;98684.00;;;25.67;57.15
53116;BME280;39010;48.088;7.954;2022-10-16T14:12:31;98685.31;;;25.75;58.00
53116;BME280;39010;48.088;7.954;2022-10-16T14:14:59;98681.69;;;25.90;54.83
53116;BME280;39010;48.088;7.954;2022-10-16T14:17:29;98687.06;;;25.61;57.48
53116;BME280;39010;48.088;7.954;2022-10-16T14:19:59;98679.97;;;25.28;58.23
53116;BME280;39010;48.088;7.954;2022-10-16T14:22:33;98686.03;;;25.25;59.20
53116;BME280;39010;48.088;7.954;2022-10-16T14:25:00;98678.91;;;24.98;58.21
53116;BME280;39010;48.088;7.954;2022-10-16T14:27:33;98680.03;;;24.77;59.25
53116;BME280;39010;48.088;7.954;2022-10-16T14:30:21;98683.03;;;24.96;60.03
53116;BME280;39010;48.088;7.954;2022-10-16T14:32:55;98689.63;;;24.64;60.41
53116;BME280;39010;48.088;7.954;2022-10-16T14:35:33;98688.50;;;25.06;59.09
53116;BME280;39010;48.088;7.954;2022-10-16T14:38:02;98688.22;;;25.23;59.16